Clipper Saga — LAFY6 — position and weather

sailwx.info

Track history (hours):
 
Tides and Currents Weather Stations Pressure Air Temp Water Temp Dewpoint Dewpoint Depression Visibility Wind Speed Wind Dir Waves Ship Positions

Clipper Saga

Last reported at 2017-Jul-24 12:31 UTC. Time now 2017-Jul-24 12:37 UTC.
Position N 54°49' W 001°06'.

Length 89 m; draft 5.9 m.

Type: Ship (hazmat cat C). MMSI: 246657008.

Date/timePositionNaut miles runAvg speedWind from/ knotsBaromVisibWave heightAir tempDewpointWater temp
2017-Jul-24 12:31N 54°49' W 001°06'0 0.4
2017-Jul-24 12:01N 54°49' W 001°07'1 1.5
2017-Jul-24 11:31N 54°48' W 001°07'1 1.7
2017-Jul-24 11:01N 54°47' W 001°07'1 1.8
2017-Jul-24 10:31N 54°46' W 001°07'1 1.9
2017-Jul-24 10:01N 54°45' W 001°07'1 2.0
2017-Jul-24 09:31N 54°44' W 001°06'1 1.8
2017-Jul-24 09:01N 54°43' W 001°06'22 6.3
2017-Jul-24 05:30N 54°37' W 000°29'4 7.5
2017-Jul-24 05:01N 54°35' W 000°24'3 6.7
2017-Jul-24 04:31N 54°33' W 000°20'3 6.1
2017-Jul-24 04:01N 54°31' W 000°16'3 6.3
2017-Jul-24 03:31N 54°29' W 000°12'4 7.4
2017-Jul-24 03:01N 54°26' W 000°07'4 8.1
2017-Jul-24 02:31N 54°24' W 000°02'5 9.0
2017-Jul-24 02:01N 54°21' E 000°04'510.0
2017-Jul-24 01:31N 54°17' E 000°09'611.2
2017-Jul-24 01:01N 54°12' E 000°14'611.9
2017-Jul-24 00:31N 54°07' E 000°19'5612.2
2017-Jul-23 19:55N 53°19' E 001°10'4 9.6
2017-Jul-23 19:29N 53°16' E 001°14'4 9.3
2017-Jul-23 19:00N 53°12' E 001°18'5 9.2
2017-Jul-23 18:31N 53°08' E 001°22'5 9.3
2017-Jul-23 18:00N 53°04' E 001°26'5 9.6
2017-Jul-23 17:31N 53°00' E 001°31'5 9.9
2017-Jul-23 17:01N 52°56' E 001°36'510.8
2017-Jul-23 16:31N 52°53' E 001°42'611.8
2017-Jul-23 16:00N 52°49' E 001°49'612.0
2017-Jul-23 15:30N 52°46' E 001°58'7411.7
2017-Jul-23 09:10N 52°06' E 003°41'0 0.0
2017-Jul-23 09:00N 52°06' E 003°41'511.0
2017-Jul-23 08:30N 52°04' E 003°49'611.3
2017-Jul-23 08:00N 52°01' E 003°57'612.3
2017-Jul-23 07:30N 51°59' E 004°06'612.1
2017-Jul-23 07:00N 51°55' E 004°14'4 8.3
2017-Jul-23 06:30N 51°53' E 004°21'0 0.0
2017-Jul-23 06:00N 51°53' E 004°21'0 0.0
2017-Jul-23 05:30N 51°53' E 004°21'0 0.0
2017-Jul-23 05:00N 51°53' E 004°21'0 0.0
2017-Jul-23 04:30N 51°53' E 004°21'0 0.0
2017-Jul-23 04:00N 51°53' E 004°21'0 0.0
2017-Jul-23 03:30N 51°53' E 004°21'0 0.0
2017-Jul-23 03:00N 51°53' E 004°21'0 0.0
2017-Jul-23 02:30N 51°53' E 004°21'0 0.0
2017-Jul-23 02:00N 51°53' E 004°21'0 0.0
2017-Jul-23 01:30N 51°53' E 004°21'0 0.0
2017-Jul-23 01:00N 51°53' E 004°21'0 0.0
2017-Jul-23 00:29N 51°53' E 004°21'0 0.0
2017-Jul-23 00:00N 51°53' E 004°21'0 0.0
2017-Jul-22 23:29N 51°53' E 004°21'0 0.0
2017-Jul-22 23:00N 51°53' E 004°21'0 0.0
2017-Jul-22 22:30N 51°53' E 004°21'0 0.0
2017-Jul-22 22:00N 51°53' E 004°21'0 0.0
2017-Jul-22 21:29N 51°53' E 004°21'0 0.0
2017-Jul-22 21:00N 51°53' E 004°21'0 0.0
2017-Jul-22 20:30N 51°53' E 004°21'0 0.0
2017-Jul-22 20:00N 51°53' E 004°21'0 0.0
2017-Jul-22 19:30N 51°53' E 004°21'0 0.0
2017-Jul-22 19:00N 51°53' E 004°21'0 0.0
2017-Jul-22 18:29N 51°53' E 004°21'0 0.0
2017-Jul-22 18:00N 51°53' E 004°21'0 0.0
2017-Jul-22 17:30N 51°53' E 004°21'0 0.0
2017-Jul-22 17:00N 51°53' E 004°21'0 0.0
2017-Jul-22 16:29N 51°53' E 004°21'0 0.0
2017-Jul-22 16:00N 51°53' E 004°21'0 0.0
2017-Jul-22 15:30N 51°53' E 004°21'0 0.0
2017-Jul-22 14:00N 51°53' E 004°21'0 0.0
2017-Jul-22 13:30N 51°53' E 004°21'0 0.0
2017-Jul-22 13:00N 51°53' E 004°21'0 0.0
2017-Jul-22 12:29N 51°53' E 004°21'0 0.0
2017-Jul-22 12:00N 51°53' E 004°21'0 0.0
2017-Jul-22 11:30N 51°53' E 004°21'0 0.0
2017-Jul-22 11:00N 51°53' E 004°21'0 0.0
2017-Jul-22 10:30N 51°53' E 004°21'0 0.0
2017-Jul-22 10:00N 51°53' E 004°21'0 0.0
2017-Jul-22 09:30N 51°53' E 004°21'0 0.0
2017-Jul-22 09:00N 51°53' E 004°21'0 0.0
2017-Jul-22 08:30N 51°53' E 004°21'0 0.0
2017-Jul-22 08:00N 51°53' E 004°21'0 0.0
2017-Jul-22 07:30N 51°53' E 004°21'0 0.0
2017-Jul-22 07:00N 51°53' E 004°21'0 0.0
2017-Jul-22 06:30N 51°53' E 004°21'0 0.0
2017-Jul-22 06:00N 51°53' E 004°21'0 0.0
2017-Jul-22 05:30N 51°53' E 004°21'0 0.0
2017-Jul-22 04:59N 51°53' E 004°21'0 0.0
2017-Jul-22 04:30N 51°53' E 004°21'0 0.0
2017-Jul-22 04:00N 51°53' E 004°21'0 0.0
2017-Jul-22 03:30N 51°53' E 004°21'0 0.0
2017-Jul-22 03:00N 51°53' E 004°21'0 0.0
2017-Jul-22 02:30N 51°53' E 004°21'0 0.0
2017-Jul-22 02:00N 51°53' E 004°21'0 0.0
2017-Jul-22 01:30N 51°53' E 004°21'0 0.0
2017-Jul-22 01:00N 51°53' E 004°21'0 0.0
2017-Jul-22 00:30N 51°53' E 004°21'0 0.0
2017-Jul-22 00:00N 51°53' E 004°21'0 0.0
2017-Jul-21 23:30N 51°53' E 004°21'0 0.0
2017-Jul-21 23:00N 51°53' E 004°21'0 0.0
2017-Jul-21 22:30N 51°53' E 004°21'0 0.0
2017-Jul-21 22:00N 51°53' E 004°21'0 0.0
2017-Jul-21 21:30N 51°53' E 004°21'0 0.0
2017-Jul-21 21:00N 51°53' E 004°21'0 0.0
2017-Jul-21 20:30N 51°53' E 004°21'0 0.0
2017-Jul-21 20:00N 51°53' E 004°21'0 0.0
2017-Jul-21 19:30N 51°53' E 004°21'0 0.0
2017-Jul-21 19:00N 51°53' E 004°21'0 0.5
2017-Jul-21 18:31N 51°53' E 004°21'1 1.4
2017-Jul-21 18:00N 51°54' E 004°20'3 6.3
2017-Jul-21 17:31N 51°55' E 004°15'4 8.7
2017-Jul-21 17:00N 51°57' E 004°09'4 8.4
2017-Jul-21 16:30N 51°59' E 004°03'5 9.2
2017-Jul-21 16:00N 52°00' E 003°56'510.2
2017-Jul-21 15:30N 52°02' E 003°48'612.2
2017-Jul-21 15:00N 52°06' E 003°41'3 0.7
2017-Jul-21 11:08N 52°08' E 003°38'0 0.0
2017-Jul-21 11:00N 52°08' E 003°38'0 0.0
2017-Jul-21 10:30N 52°08' E 003°38'0 0.0
2017-Jul-21 10:00N 52°08' E 003°38'0 0.0
2017-Jul-21 09:30N 52°08' E 003°38'0 0.0
2017-Jul-21 09:00N 52°08' E 003°38'0 0.2
2017-Jul-21 08:30N 52°08' E 003°38'149 6.6
2017-Jul-20 10:04N 53°33' E 000°15'1 9.1
2017-Jul-20 09:56N 53°33' E 000°12'511.8
2017-Jul-20 09:30N 53°34' E 000°04'612.4
2017-Jul-20 09:00N 53°37' W 000°05'510.3
2017-Jul-20 08:30N 53°40' W 000°12'4 8.0
2017-Jul-20 07:57N 53°44' W 000°15'0 0.0
2017-Jul-20 07:30N 53°44' W 000°15'0 0.0
2017-Jul-20 07:00N 53°44' W 000°15'0 0.0
2017-Jul-20 06:27N 53°44' W 000°15'0 0.0
2017-Jul-20 06:00N 53°44' W 000°15'0 0.0
2017-Jul-20 05:30N 53°44' W 000°15'0 0.0
2017-Jul-20 05:00N 53°44' W 000°15'0 0.0
2017-Jul-20 04:30N 53°44' W 000°15'0 0.0
2017-Jul-20 04:00N 53°44' W 000°15'0 0.0
2017-Jul-20 03:30N 53°44' W 000°15'0 0.0
2017-Jul-20 03:00N 53°44' W 000°15'0 0.0
2017-Jul-20 02:30N 53°44' W 000°15'0 0.0
2017-Jul-20 02:00N 53°44' W 000°15'0 0.0
2017-Jul-20 01:30N 53°44' W 000°15'0 0.0
2017-Jul-20 01:00N 53°44' W 000°15'0 0.0
2017-Jul-20 00:30N 53°44' W 000°15'0 0.0
2017-Jul-20 00:00N 53°44' W 000°15'0 0.0
2017-Jul-19 23:30N 53°44' W 000°15'0 0.0
2017-Jul-19 23:00N 53°44' W 000°15'0 0.0
2017-Jul-19 22:30N 53°44' W 000°15'0 0.0
2017-Jul-19 22:00N 53°44' W 000°15'0 0.0
2017-Jul-19 21:30N 53°44' W 000°15'0 0.0
2017-Jul-19 21:00N 53°44' W 000°15'0 0.0
2017-Jul-19 20:30N 53°44' W 000°15'0 0.0
2017-Jul-19 20:00N 53°44' W 000°15'0 0.0
2017-Jul-19 19:30N 53°44' W 000°15'0 0.0
2017-Jul-19 19:00N 53°44' W 000°15'0 0.0
2017-Jul-19 18:30N 53°44' W 000°15'0 0.0
2017-Jul-19 18:00N 53°44' W 000°15'0 0.0
2017-Jul-19 17:30N 53°44' W 000°15'0 0.0
2017-Jul-19 17:00N 53°44' W 000°15'0 0.0
2017-Jul-19 16:30N 53°44' W 000°15'3 6.1
2017-Jul-19 16:00N 53°41' W 000°13'4 7.6
2017-Jul-19 15:30N 53°38' W 000°09'4 7.5
2017-Jul-19 14:59N 53°36' W 000°03'5 8.8
2017-Jul-19 14:28N 53°35' E 000°04'30 3.9
2017-Jul-19 06:51N 53°23' E 000°51'412.7
2017-Jul-19 06:30N 53°21' E 000°57'812.1
2017-Jul-19 05:52N 53°16' E 001°06'411.7
2017-Jul-19 05:29N 53°13' E 001°11'511.2
2017-Jul-19 05:01N 53°09' E 001°17'510.6
2017-Jul-19 04:31N 53°05' E 001°23'510.1
2017-Jul-19 04:00N 53°01' E 001°29'5 9.7
2017-Jul-19 03:30N 52°57' E 001°34'5 9.5
2017-Jul-19 03:01N 52°54' E 001°40'5 9.4
2017-Jul-19 02:30N 52°51' E 001°45'510.1
2017-Jul-19 02:00N 52°48' E 001°53'510.5
2017-Jul-19 01:30N 52°46' E 002°00'510.2
2017-Jul-19 01:00N 52°42' E 002°06'2912.3
2017-Jul-18 22:39N 52°15' E 002°25'212.7
2017-Jul-18 22:30N 52°14' E 002°27'612.8
2017-Jul-18 22:00N 52°08' E 002°31'612.3
2017-Jul-18 21:30N 52°02' E 002°36'612.1
2017-Jul-18 21:00N 51°59' E 002°44'612.0
2017-Jul-18 20:30N 51°55' E 002°51'611.4
2017-Jul-18 19:59N 51°52' E 002°60'511.1
2017-Jul-18 19:29N 51°51' E 003°08'711.5
2017-Jul-18 18:51N 51°45' E 003°15'310.0
2017-Jul-18 18:30N 51°42' E 003°18'511.0
2017-Jul-18 18:00N 51°37' E 003°22'510.4
2017-Jul-18 17:30N 51°32' E 003°26'5 9.7
2017-Jul-18 17:00N 51°28' E 003°31'4 8.6
2017-Jul-18 16:30N 51°26' E 003°36'4 8.8
2017-Jul-18 16:00N 51°24' E 003°43'510.7
2017-Jul-18 15:31N 51°21' E 003°49'611.1
2017-Jul-18 15:00N 51°24' E 003°57'8 8.3
2017-Jul-18 14:01N 51°24' E 004°10'5 7.9
2017-Jul-18 13:22N 51°21' E 004°17'0 0.0
2017-Jul-18 13:00N 51°21' E 004°17'0 0.5
2017-Jul-18 12:30N 51°21' E 004°17'2 1.8
2017-Jul-18 11:29N 51°19' E 004°18'0 0.0
2017-Jul-18 10:50N 51°19' E 004°18'0 0.0
2017-Jul-18 10:11N 51°19' E 004°18'0 0.0
2017-Jul-18 09:59N 51°19' E 004°18'0 0.0
2017-Jul-18 09:11N 51°19' E 004°18'0 0.0
2017-Jul-18 08:53N 51°19' E 004°18'0 0.0
2017-Jul-18 08:17N 51°19' E 004°18'0 0.0
2017-Jul-18 07:44N 51°19' E 004°18'0 0.0
2017-Jul-18 07:14N 51°19' E 004°18'0 0.0
2017-Jul-18 06:56N 51°19' E 004°18'0 0.0
2017-Jul-18 03:50N 51°19' E 004°18'0 0.0
2017-Jul-18 03:26N 51°19' E 004°18'0 0.0
2017-Jul-18 01:56N 51°19' E 004°18'0 0.0
2017-Jul-18 01:11N 51°19' E 004°18'0 0.0
2017-Jul-18 00:50N 51°19' E 004°18'0 0.0
2017-Jul-18 00:26N 51°19' E 004°18'0 0.0
2017-Jul-17 23:56N 51°19' E 004°18'0 0.0
2017-Jul-17 23:29N 51°19' E 004°18'0 0.0
2017-Jul-17 22:44N 51°19' E 004°18'0 0.0
2017-Jul-17 22:29N 51°19' E 004°18'0 0.0
2017-Jul-17 21:38N 51°19' E 004°18'0 0.0
2017-Jul-17 21:14N 51°19' E 004°18'0 0.0
2017-Jul-17 20:56N 51°19' E 004°18'0 0.0
2017-Jul-17 20:26N 51°19' E 004°18'0 0.0
2017-Jul-17 19:56N 51°19' E 004°18'0 0.0
2017-Jul-17 19:23N 51°19' E 004°18'0 0.0
2017-Jul-17 18:59N 51°19' E 004°18'0 0.0
2017-Jul-17 18:29N 51°19' E 004°18'0 0.0
2017-Jul-17 17:47N 51°19' E 004°18'0 0.0
2017-Jul-17 17:20N 51°19' E 004°18'0 0.0
2017-Jul-17 16:50N 51°19' E 004°18'0 0.0
2017-Jul-17 16:29N 51°19' E 004°18'0 0.0
2017-Jul-17 15:59N 51°19' E 004°18'0 0.0
2017-Jul-17 15:20N 51°19' E 004°18'0 0.0
2017-Jul-17 14:50N 51°19' E 004°18'0 0.0
2017-Jul-17 14:23N 51°19' E 004°18'0 0.0
2017-Jul-17 13:56N 51°19' E 004°18'0 0.0
2017-Jul-17 13:17N 51°19' E 004°18'0 0.0
2017-Jul-17 12:56N 51°19' E 004°18'0 0.0
2017-Jul-17 12:17N 51°19' E 004°18'0 0.0
2017-Jul-17 11:56N 51°19' E 004°18'0 0.0
2017-Jul-17 10:26N 51°19' E 004°18'0 0.0
2017-Jul-17 09:47N 51°19' E 004°18'0 0.0
2017-Jul-17 09:11N 51°19' E 004°18'0 0.0
2017-Jul-17 08:59N 51°19' E 004°18'0 0.2
2017-Jul-17 08:30N 51°19' E 004°18'2 3.8
2017-Jul-17 08:00N 51°21' E 004°17'0 0.0
2017-Jul-17 07:31N 51°21' E 004°17'1 2.5
2017-Jul-17 07:00N 51°21' E 004°15'4 7.8
2017-Jul-17 06:30N 51°23' E 004°10'510.1
2017-Jul-17 06:00N 51°24' E 004°02'3 6.1
2017-Jul-17 05:30N 51°23' E 003°57'611.8
2017-Jul-17 05:00N 51°21' E 003°49'611.6
2017-Jul-17 04:30N 51°24' E 003°41'510.0
2017-Jul-17 04:00N 51°26' E 003°34'4 8.3
2017-Jul-17 03:30N 51°29' E 003°29'5 9.0
2017-Jul-17 03:00N 51°33' E 003°25'5 9.6
2017-Jul-17 02:30N 51°37' E 003°21'611.0
2017-Jul-17 01:59N 51°42' E 003°16'5 7.7
2017-Jul-17 01:20N 51°46' E 003°11'3 5.3
2017-Jul-17 00:50N 51°48' E 003°08'49 3.6
2017-Jul-16 11:16N 52°31' E 003°45'311.9
2017-Jul-16 11:00N 52°31' E 003°50'611.7
2017-Jul-16 10:30N 52°31' E 003°60'611.3
2017-Jul-16 10:00N 52°31' E 004°09'611.5
2017-Jul-16 09:30N 52°30' E 004°18'611.6
2017-Jul-16 09:00N 52°29' E 004°28'510.2
2017-Jul-16 08:30N 52°28' E 004°36'0 0.9
2017-Jul-16 08:00N 52°28' E 004°37'4 7.1
2017-Jul-16 07:30N 52°27' E 004°42'3 6.1
2017-Jul-16 06:56N 52°24' E 004°46'0 0.0
2017-Jul-16 06:29N 52°24' E 004°46'0 0.0
2017-Jul-16 05:59N 52°24' E 004°46'0 0.0
2017-Jul-16 05:29N 52°24' E 004°46'0 0.0
2017-Jul-16 04:59N 52°24' E 004°46'0 0.0
2017-Jul-16 04:29N 52°24' E 004°46'0 0.0
2017-Jul-16 03:59N 52°24' E 004°46'0 0.0
2017-Jul-16 03:29N 52°24' E 004°46'0 0.0
2017-Jul-16 02:59N 52°24' E 004°46'0 0.0
2017-Jul-16 02:29N 52°24' E 004°46'0 0.0
2017-Jul-16 01:59N 52°24' E 004°46'0 0.0
2017-Jul-16 01:29N 52°24' E 004°46'0 0.0
2017-Jul-16 00:59N 52°24' E 004°46'0 0.0
2017-Jul-16 00:29N 52°24' E 004°46'0 0.0
2017-Jul-15 23:59N 52°24' E 004°46'0 0.0
2017-Jul-15 23:29N 52°24' E 004°46'0 0.0
2017-Jul-15 22:59N 52°24' E 004°46'0 0.0
2017-Jul-15 22:23N 52°24' E 004°46'0 0.0
2017-Jul-15 21:59N 52°24' E 004°46'0 0.0
2017-Jul-15 21:29N 52°24' E 004°46'0 0.0
2017-Jul-15 20:59N 52°24' E 004°46'0 0.0
2017-Jul-15 20:29N 52°24' E 004°46'0 0.0
2017-Jul-15 19:59N 52°24' E 004°46'0 0.0
2017-Jul-15 19:23N 52°24' E 004°46'0 0.0
2017-Jul-15 18:59N 52°24' E 004°46'0 0.0
2017-Jul-15 18:26N 52°24' E 004°46'0 0.0
2017-Jul-15 17:59N 52°24' E 004°46'0 0.0
2017-Jul-15 17:29N 52°24' E 004°46'0 0.1
2017-Jul-15 17:00N 52°24' E 004°46'2 4.8
2017-Jul-15 16:31N 52°26' E 004°44'5 9.4
2017-Jul-15 16:00N 52°28' E 004°36'1 1.5
2017-Jul-15 15:30N 52°28' E 004°35'510.1
2017-Jul-15 15:00N 52°28' E 004°27'1110.8
2017-Jul-15 14:00N 52°29' E 004°09'510.8
2017-Jul-15 13:30N 52°34' E 004°05'611.2
2017-Jul-15 13:00N 52°39' E 004°02'612.4
2017-Jul-15 12:30N 52°45' E 003°59'612.3
2017-Jul-15 12:00N 52°52' E 003°58'712.0
2017-Jul-15 11:25N 52°58' E 004°02'2810.6
2017-Jul-15 08:48N 53°20' E 004°30'310.4
2017-Jul-15 08:29N 53°23' E 004°32'510.4
2017-Jul-15 07:59N 53°28' E 004°35'510.6
2017-Jul-15 07:30N 53°33' E 004°37'  
Track history (hours):
 
Tides and Currents Weather Stations Pressure Air Temp Water Temp Dewpoint Dewpoint Depression Visibility Wind Speed Wind Dir Waves Ship Positions

Clipper Saga

Last reported at 2017-Jul-24 12:31 UTC. Time now 2017-Jul-24 12:37 UTC.
Position N 54°49' W 001°06'.

Length 89 m; draft 5.9 m.

Type: Ship (hazmat cat C). MMSI: 246657008.

Date/timePositionNaut miles runAvg speedWind from/ knotsBaromVisibWave heightAir tempDewpointWater temp
2017-Jul-24 12:31N 54°49' W 001°06'0 0.4
2017-Jul-24 12:01N 54°49' W 001°07'1 1.5
2017-Jul-24 11:31N 54°48' W 001°07'1 1.7
2017-Jul-24 11:01N 54°47' W 001°07'1 1.8
2017-Jul-24 10:31N 54°46' W 001°07'1 1.9
2017-Jul-24 10:01N 54°45' W 001°07'1 2.0
2017-Jul-24 09:31N 54°44' W 001°06'1 1.8
2017-Jul-24 09:01N 54°43' W 001°06'22 6.3
2017-Jul-24 05:30N 54°37' W 000°29'4 7.5
2017-Jul-24 05:01N 54°35' W 000°24'3 6.7
2017-Jul-24 04:31N 54°33' W 000°20'3 6.1
2017-Jul-24 04:01N 54°31' W 000°16'3 6.3
2017-Jul-24 03:31N 54°29' W 000°12'4 7.4
2017-Jul-24 03:01N 54°26' W 000°07'4 8.1
2017-Jul-24 02:31N 54°24' W 000°02'5 9.0
2017-Jul-24 02:01N 54°21' E 000°04'510.0
2017-Jul-24 01:31N 54°17' E 000°09'611.2
2017-Jul-24 01:01N 54°12' E 000°14'611.9
2017-Jul-24 00:31N 54°07' E 000°19'5612.2
2017-Jul-23 19:55N 53°19' E 001°10'4 9.6
2017-Jul-23 19:29N 53°16' E 001°14'4 9.3
2017-Jul-23 19:00N 53°12' E 001°18'5 9.2
2017-Jul-23 18:31N 53°08' E 001°22'5 9.3
2017-Jul-23 18:00N 53°04' E 001°26'5 9.6
2017-Jul-23 17:31N 53°00' E 001°31'5 9.9
2017-Jul-23 17:01N 52°56' E 001°36'510.8
2017-Jul-23 16:31N 52°53' E 001°42'611.8
2017-Jul-23 16:00N 52°49' E 001°49'612.0
2017-Jul-23 15:30N 52°46' E 001°58'7411.7
2017-Jul-23 09:10N 52°06' E 003°41'0 0.0
2017-Jul-23 09:00N 52°06' E 003°41'511.0
2017-Jul-23 08:30N 52°04' E 003°49'611.3
2017-Jul-23 08:00N 52°01' E 003°57'612.3
2017-Jul-23 07:30N 51°59' E 004°06'612.1
2017-Jul-23 07:00N 51°55' E 004°14'4 8.3
2017-Jul-23 06:30N 51°53' E 004°21'0 0.0
2017-Jul-23 06:00N 51°53' E 004°21'0 0.0
2017-Jul-23 05:30N 51°53' E 004°21'0 0.0
2017-Jul-23 05:00N 51°53' E 004°21'0 0.0
2017-Jul-23 04:30N 51°53' E 004°21'0 0.0
2017-Jul-23 04:00N 51°53' E 004°21'0 0.0
2017-Jul-23 03:30N 51°53' E 004°21'0 0.0
2017-Jul-23 03:00N 51°53' E 004°21'0 0.0
2017-Jul-23 02:30N 51°53' E 004°21'0 0.0
2017-Jul-23 02:00N 51°53' E 004°21'0 0.0
2017-Jul-23 01:30N 51°53' E 004°21'0 0.0
2017-Jul-23 01:00N 51°53' E 004°21'0 0.0
2017-Jul-23 00:29N 51°53' E 004°21'0 0.0
2017-Jul-23 00:00N 51°53' E 004°21'0 0.0
2017-Jul-22 23:29N 51°53' E 004°21'0 0.0
2017-Jul-22 23:00N 51°53' E 004°21'0 0.0
2017-Jul-22 22:30N 51°53' E 004°21'0 0.0
2017-Jul-22 22:00N 51°53' E 004°21'0 0.0
2017-Jul-22 21:29N 51°53' E 004°21'0 0.0
2017-Jul-22 21:00N 51°53' E 004°21'0 0.0
2017-Jul-22 20:30N 51°53' E 004°21'0 0.0
2017-Jul-22 20:00N 51°53' E 004°21'0 0.0
2017-Jul-22 19:30N 51°53' E 004°21'0 0.0
2017-Jul-22 19:00N 51°53' E 004°21'0 0.0
2017-Jul-22 18:29N 51°53' E 004°21'0 0.0
2017-Jul-22 18:00N 51°53' E 004°21'0 0.0
2017-Jul-22 17:30N 51°53' E 004°21'0 0.0
2017-Jul-22 17:00N 51°53' E 004°21'0 0.0
2017-Jul-22 16:29N 51°53' E 004°21'0 0.0
2017-Jul-22 16:00N 51°53' E 004°21'0 0.0
2017-Jul-22 15:30N 51°53' E 004°21'0 0.0
2017-Jul-22 14:00N 51°53' E 004°21'0 0.0
2017-Jul-22 13:30N 51°53' E 004°21'0 0.0
2017-Jul-22 13:00N 51°53' E 004°21'0 0.0
2017-Jul-22 12:29N 51°53' E 004°21'0 0.0
2017-Jul-22 12:00N 51°53' E 004°21'0 0.0
2017-Jul-22 11:30N 51°53' E 004°21'0 0.0
2017-Jul-22 11:00N 51°53' E 004°21'0 0.0
2017-Jul-22 10:30N 51°53' E 004°21'0 0.0
2017-Jul-22 10:00N 51°53' E 004°21'0 0.0
2017-Jul-22 09:30N 51°53' E 004°21'0 0.0
2017-Jul-22 09:00N 51°53' E 004°21'0 0.0
2017-Jul-22 08:30N 51°53' E 004°21'0 0.0
2017-Jul-22 08:00N 51°53' E 004°21'0 0.0
2017-Jul-22 07:30N 51°53' E 004°21'0 0.0
2017-Jul-22 07:00N 51°53' E 004°21'0 0.0
2017-Jul-22 06:30N 51°53' E 004°21'0 0.0
2017-Jul-22 06:00N 51°53' E 004°21'0 0.0
2017-Jul-22 05:30N 51°53' E 004°21'0 0.0
2017-Jul-22 04:59N 51°53' E 004°21'0 0.0
2017-Jul-22 04:30N 51°53' E 004°21'0 0.0
2017-Jul-22 04:00N 51°53' E 004°21'0 0.0
2017-Jul-22 03:30N 51°53' E 004°21'0 0.0
2017-Jul-22 03:00N 51°53' E 004°21'0 0.0
2017-Jul-22 02:30N 51°53' E 004°21'0 0.0
2017-Jul-22 02:00N 51°53' E 004°21'0 0.0
2017-Jul-22 01:30N 51°53' E 004°21'0 0.0
2017-Jul-22 01:00N 51°53' E 004°21'0 0.0
2017-Jul-22 00:30N 51°53' E 004°21'0 0.0
2017-Jul-22 00:00N 51°53' E 004°21'0 0.0
2017-Jul-21 23:30N 51°53' E 004°21'0 0.0
2017-Jul-21 23:00N 51°53' E 004°21'0 0.0
2017-Jul-21 22:30N 51°53' E 004°21'0 0.0
2017-Jul-21 22:00N 51°53' E 004°21'0 0.0
2017-Jul-21 21:30N 51°53' E 004°21'0 0.0
2017-Jul-21 21:00N 51°53' E 004°21'0 0.0
2017-Jul-21 20:30N 51°53' E 004°21'0 0.0
2017-Jul-21 20:00N 51°53' E 004°21'0 0.0
2017-Jul-21 19:30N 51°53' E 004°21'0 0.0
2017-Jul-21 19:00N 51°53' E 004°21'0 0.5
2017-Jul-21 18:31N 51°53' E 004°21'1 1.4
2017-Jul-21 18:00N 51°54' E 004°20'3 6.3
2017-Jul-21 17:31N 51°55' E 004°15'4 8.7
2017-Jul-21 17:00N 51°57' E 004°09'4 8.4
2017-Jul-21 16:30N 51°59' E 004°03'5 9.2
2017-Jul-21 16:00N 52°00' E 003°56'510.2
2017-Jul-21 15:30N 52°02' E 003°48'612.2
2017-Jul-21 15:00N 52°06' E 003°41'3 0.7
2017-Jul-21 11:08N 52°08' E 003°38'0 0.0
2017-Jul-21 11:00N 52°08' E 003°38'0 0.0
2017-Jul-21 10:30N 52°08' E 003°38'0 0.0
2017-Jul-21 10:00N 52°08' E 003°38'0 0.0
2017-Jul-21 09:30N 52°08' E 003°38'0 0.0
2017-Jul-21 09:00N 52°08' E 003°38'0 0.2
2017-Jul-21 08:30N 52°08' E 003°38'149 6.6
2017-Jul-20 10:04N 53°33' E 000°15'1 9.1
2017-Jul-20 09:56N 53°33' E 000°12'511.8
2017-Jul-20 09:30N 53°34' E 000°04'612.4
2017-Jul-20 09:00N 53°37' W 000°05'510.3
2017-Jul-20 08:30N 53°40' W 000°12'4 8.0
2017-Jul-20 07:57N 53°44' W 000°15'0 0.0
2017-Jul-20 07:30N 53°44' W 000°15'0 0.0
2017-Jul-20 07:00N 53°44' W 000°15'0 0.0
2017-Jul-20 06:27N 53°44' W 000°15'0 0.0
2017-Jul-20 06:00N 53°44' W 000°15'0 0.0
2017-Jul-20 05:30N 53°44' W 000°15'0 0.0
2017-Jul-20 05:00N 53°44' W 000°15'0 0.0
2017-Jul-20 04:30N 53°44' W 000°15'0 0.0
2017-Jul-20 04:00N 53°44' W 000°15'0 0.0
2017-Jul-20 03:30N 53°44' W 000°15'0 0.0
2017-Jul-20 03:00N 53°44' W 000°15'0 0.0
2017-Jul-20 02:30N 53°44' W 000°15'0 0.0
2017-Jul-20 02:00N 53°44' W 000°15'0 0.0
2017-Jul-20 01:30N 53°44' W 000°15'0 0.0
2017-Jul-20 01:00N 53°44' W 000°15'0 0.0
2017-Jul-20 00:30N 53°44' W 000°15'0 0.0
2017-Jul-20 00:00N 53°44' W 000°15'0 0.0
2017-Jul-19 23:30N 53°44' W 000°15'0 0.0
2017-Jul-19 23:00N 53°44' W 000°15'0 0.0
2017-Jul-19 22:30N 53°44' W 000°15'0 0.0
2017-Jul-19 22:00N 53°44' W 000°15'0 0.0
2017-Jul-19 21:30N 53°44' W 000°15'0 0.0
2017-Jul-19 21:00N 53°44' W 000°15'0 0.0
2017-Jul-19 20:30N 53°44' W 000°15'0 0.0
2017-Jul-19 20:00N 53°44' W 000°15'0 0.0
2017-Jul-19 19:30N 53°44' W 000°15'0 0.0
2017-Jul-19 19:00N 53°44' W 000°15'0 0.0
2017-Jul-19 18:30N 53°44' W 000°15'0 0.0
2017-Jul-19 18:00N 53°44' W 000°15'0 0.0
2017-Jul-19 17:30N 53°44' W 000°15'0 0.0
2017-Jul-19 17:00N 53°44' W 000°15'0 0.0
2017-Jul-19 16:30N 53°44' W 000°15'3 6.1
2017-Jul-19 16:00N 53°41' W 000°13'4 7.6
2017-Jul-19 15:30N 53°38' W 000°09'4 7.5
2017-Jul-19 14:59N 53°36' W 000°03'5 8.8
2017-Jul-19 14:28N 53°35' E 000°04'30 3.9
2017-Jul-19 06:51N 53°23' E 000°51'412.7
2017-Jul-19 06:30N 53°21' E 000°57'812.1
2017-Jul-19 05:52N 53°16' E 001°06'411.7
2017-Jul-19 05:29N 53°13' E 001°11'511.2
2017-Jul-19 05:01N 53°09' E 001°17'510.6
2017-Jul-19 04:31N 53°05' E 001°23'510.1
2017-Jul-19 04:00N 53°01' E 001°29'5 9.7
2017-Jul-19 03:30N 52°57' E 001°34'5 9.5
2017-Jul-19 03:01N 52°54' E 001°40'5 9.4
2017-Jul-19 02:30N 52°51' E 001°45'510.1
2017-Jul-19 02:00N 52°48' E 001°53'510.5
2017-Jul-19 01:30N 52°46' E 002°00'510.2
2017-Jul-19 01:00N 52°42' E 002°06'2912.3
2017-Jul-18 22:39N 52°15' E 002°25'212.7
2017-Jul-18 22:30N 52°14' E 002°27'612.8
2017-Jul-18 22:00N 52°08' E 002°31'612.3
2017-Jul-18 21:30N 52°02' E 002°36'612.1
2017-Jul-18 21:00N 51°59' E 002°44'612.0
2017-Jul-18 20:30N 51°55' E 002°51'611.4
2017-Jul-18 19:59N 51°52' E 002°60'511.1
2017-Jul-18 19:29N 51°51' E 003°08'711.5
2017-Jul-18 18:51N 51°45' E 003°15'310.0
2017-Jul-18 18:30N 51°42' E 003°18'511.0
2017-Jul-18 18:00N 51°37' E 003°22'510.4
2017-Jul-18 17:30N 51°32' E 003°26'5 9.7
2017-Jul-18 17:00N 51°28' E 003°31'4 8.6
2017-Jul-18 16:30N 51°26' E 003°36'4 8.8
2017-Jul-18 16:00N 51°24' E 003°43'510.7
2017-Jul-18 15:31N 51°21' E 003°49'611.1
2017-Jul-18 15:00N 51°24' E 003°57'8 8.3
2017-Jul-18 14:01N 51°24' E 004°10'5 7.9
2017-Jul-18 13:22N 51°21' E 004°17'0 0.0
2017-Jul-18 13:00N 51°21' E 004°17'0 0.5
2017-Jul-18 12:30N 51°21' E 004°17'2 1.8
2017-Jul-18 11:29N 51°19' E 004°18'0 0.0
2017-Jul-18 10:50N 51°19' E 004°18'0 0.0
2017-Jul-18 10:11N 51°19' E 004°18'0 0.0
2017-Jul-18 09:59N 51°19' E 004°18'0 0.0
2017-Jul-18 09:11N 51°19' E 004°18'0 0.0
2017-Jul-18 08:53N 51°19' E 004°18'0 0.0
2017-Jul-18 08:17N 51°19' E 004°18'0 0.0
2017-Jul-18 07:44N 51°19' E 004°18'0 0.0
2017-Jul-18 07:14N 51°19' E 004°18'0 0.0
2017-Jul-18 06:56N 51°19' E 004°18'0 0.0
2017-Jul-18 03:50N 51°19' E 004°18'0 0.0
2017-Jul-18 03:26N 51°19' E 004°18'0 0.0
2017-Jul-18 01:56N 51°19' E 004°18'0 0.0
2017-Jul-18 01:11N 51°19' E 004°18'0 0.0
2017-Jul-18 00:50N 51°19' E 004°18'0 0.0
2017-Jul-18 00:26N 51°19' E 004°18'0 0.0
2017-Jul-17 23:56N 51°19' E 004°18'0 0.0
2017-Jul-17 23:29N 51°19' E 004°18'0 0.0
2017-Jul-17 22:44N 51°19' E 004°18'0 0.0
2017-Jul-17 22:29N 51°19' E 004°18'0 0.0
2017-Jul-17 21:38N 51°19' E 004°18'0 0.0
2017-Jul-17 21:14N 51°19' E 004°18'0 0.0
2017-Jul-17 20:56N 51°19' E 004°18'0 0.0
2017-Jul-17 20:26N 51°19' E 004°18'0 0.0
2017-Jul-17 19:56N 51°19' E 004°18'0 0.0
2017-Jul-17 19:23N 51°19' E 004°18'0 0.0
2017-Jul-17 18:59N 51°19' E 004°18'0 0.0
2017-Jul-17 18:29N 51°19' E 004°18'0 0.0
2017-Jul-17 17:47N 51°19' E 004°18'0 0.0
2017-Jul-17 17:20N 51°19' E 004°18'0 0.0
2017-Jul-17 16:50N 51°19' E 004°18'0 0.0
2017-Jul-17 16:29N 51°19' E 004°18'0 0.0
2017-Jul-17 15:59N 51°19' E 004°18'0 0.0
2017-Jul-17 15:20N 51°19' E 004°18'0 0.0
2017-Jul-17 14:50N 51°19' E 004°18'0 0.0
2017-Jul-17 14:23N 51°19' E 004°18'0 0.0
2017-Jul-17 13:56N 51°19' E 004°18'0 0.0
2017-Jul-17 13:17N 51°19' E 004°18'0 0.0
2017-Jul-17 12:56N 51°19' E 004°18'0 0.0
2017-Jul-17 12:17N 51°19' E 004°18'0 0.0
2017-Jul-17 11:56N 51°19' E 004°18'0 0.0
2017-Jul-17 10:26N 51°19' E 004°18'0 0.0
2017-Jul-17 09:47N 51°19' E 004°18'0 0.0
2017-Jul-17 09:11N 51°19' E 004°18'0 0.0
2017-Jul-17 08:59N 51°19' E 004°18'0 0.2
2017-Jul-17 08:30N 51°19' E 004°18'2 3.8
2017-Jul-17 08:00N 51°21' E 004°17'0 0.0
2017-Jul-17 07:31N 51°21' E 004°17'1 2.5
2017-Jul-17 07:00N 51°21' E 004°15'4 7.8
2017-Jul-17 06:30N 51°23' E 004°10'510.1
2017-Jul-17 06:00N 51°24' E 004°02'3 6.1
2017-Jul-17 05:30N 51°23' E 003°57'611.8
2017-Jul-17 05:00N 51°21' E 003°49'611.6
2017-Jul-17 04:30N 51°24' E 003°41'510.0
2017-Jul-17 04:00N 51°26' E 003°34'4 8.3
2017-Jul-17 03:30N 51°29' E 003°29'5 9.0
2017-Jul-17 03:00N 51°33' E 003°25'5 9.6
2017-Jul-17 02:30N 51°37' E 003°21'611.0
2017-Jul-17 01:59N 51°42' E 003°16'5 7.7
2017-Jul-17 01:20N 51°46' E 003°11'3 5.3
2017-Jul-17 00:50N 51°48' E 003°08'49 3.6
2017-Jul-16 11:16N 52°31' E 003°45'311.9
2017-Jul-16 11:00N 52°31' E 003°50'611.7
2017-Jul-16 10:30N 52°31' E 003°60'611.3
2017-Jul-16 10:00N 52°31' E 004°09'611.5
2017-Jul-16 09:30N 52°30' E 004°18'611.6
2017-Jul-16 09:00N 52°29' E 004°28'510.2
2017-Jul-16 08:30N 52°28' E 004°36'0 0.9
2017-Jul-16 08:00N 52°28' E 004°37'4 7.1
2017-Jul-16 07:30N 52°27' E 004°42'3 6.1
2017-Jul-16 06:56N 52°24' E 004°46'0 0.0
2017-Jul-16 06:29N 52°24' E 004°46'0 0.0
2017-Jul-16 05:59N 52°24' E 004°46'0 0.0
2017-Jul-16 05:29N 52°24' E 004°46'0 0.0
2017-Jul-16 04:59N 52°24' E 004°46'0 0.0
2017-Jul-16 04:29N 52°24' E 004°46'0 0.0
2017-Jul-16 03:59N 52°24' E 004°46'0 0.0
2017-Jul-16 03:29N 52°24' E 004°46'0 0.0
2017-Jul-16 02:59N 52°24' E 004°46'0 0.0
2017-Jul-16 02:29N 52°24' E 004°46'0 0.0
2017-Jul-16 01:59N 52°24' E 004°46'0 0.0
2017-Jul-16 01:29N 52°24' E 004°46'0 0.0
2017-Jul-16 00:59N 52°24' E 004°46'0 0.0
2017-Jul-16 00:29N 52°24' E 004°46'0 0.0
2017-Jul-15 23:59N 52°24' E 004°46'0 0.0
2017-Jul-15 23:29N 52°24' E 004°46'0 0.0
2017-Jul-15 22:59N 52°24' E 004°46'0 0.0
2017-Jul-15 22:23N 52°24' E 004°46'0 0.0
2017-Jul-15 21:59N 52°24' E 004°46'0 0.0
2017-Jul-15 21:29N 52°24' E 004°46'0 0.0
2017-Jul-15 20:59N 52°24' E 004°46'0 0.0
2017-Jul-15 20:29N 52°24' E 004°46'0 0.0
2017-Jul-15 19:59N 52°24' E 004°46'0 0.0
2017-Jul-15 19:23N 52°24' E 004°46'0 0.0
2017-Jul-15 18:59N 52°24' E 004°46'0 0.0
2017-Jul-15 18:26N 52°24' E 004°46'0 0.0
2017-Jul-15 17:59N 52°24' E 004°46'0 0.0
2017-Jul-15 17:29N 52°24' E 004°46'0 0.1
2017-Jul-15 17:00N 52°24' E 004°46'2 4.8
2017-Jul-15 16:31N 52°26' E 004°44'5 9.4
2017-Jul-15 16:00N 52°28' E 004°36'1 1.5
2017-Jul-15 15:30N 52°28' E 004°35'510.1
2017-Jul-15 15:00N 52°28' E 004°27'1110.8
2017-Jul-15 14:00N 52°29' E 004°09'510.8
2017-Jul-15 13:30N 52°34' E 004°05'611.2
2017-Jul-15 13:00N 52°39' E 004°02'612.4
2017-Jul-15 12:30N 52°45' E 003°59'612.3
2017-Jul-15 12:00N 52°52' E 003°58'712.0
2017-Jul-15 11:25N 52°58' E 004°02'2810.6
2017-Jul-15 08:48N 53°20' E 004°30'310.4
2017-Jul-15 08:29N 53°23' E 004°32'510.4
2017-Jul-15 07:59N 53°28' E 004°35'510.6
2017-Jul-15 07:30N 53°33' E 004°37'  

Dump ship's entire track history